Village, Texas
Current Conditions -  °F | °C
As of 10:53 AM on Saturday 25 Oct 2014 (Local Time) from KDAL Reporting Station
Clear Clear  
Wind Chill: 78°   Ceiling: Unl
Heat Index: 79°   Visibility: 10mi
Dew Point: 60°   Wind: 7mph
Humidity: 54%   Direction: 220°SW
Pressure: 30.15"   Gusts: NA
Location:  32.8367°N, 96.796°W
Report Text: KDAL 251553Z AUTO 22006KT 10SM CLR 26/16 A3015 RMK AO2 SLP202 T02560156
Loading
Personal Weather Stations






























Interactive Weather Map
Tropical Storm Tracking
New forecast layout! Learn more

10-Day Weather Forecast

Advertisements
Track Severe Weather on mobile